| time (UTC) | temp F | wind direction | speed MPH | gust MPH | rain 1hr in | rain 24hr in | rain mn in | humidity % | barometer mb |
| 20260510154540 | 60 | 114 | 2.0 | 4.0 | 0.00 | 0.47 | 0.09 | 90 | 1006.2 |
| 20260510154039 | 60 | 109 | 2.0 | 4.0 | 0.00 | 0.47 | 0.09 | 90 | 1006.3 |
| 20260510153606 | 60 | 92 | 2.0 | 6.0 | 0.00 | 0.47 | 0.09 | 91 | 1006.4 |
| 20260510153043 | 60 | 105 | 2.0 | 7.0 | 0.00 | 0.47 | 0.09 | 90 | 1006.5 |
| 20260510152529 | 60 | 121 | 2.0 | 8.0 | 0.00 | 0.47 | 0.09 | 91 | 1006.6 |
| 20260510152028 | 60 | 113 | 2.0 | 8.0 | 0.04 | 0.47 | 0.09 | 91 | 1006.6 |
| 20260510151534 | 60 | 105 | 2.0 | 6.0 | 0.04 | 0.47 | 0.09 | 90 | 1006.7 |
| 20260510151028 | 61 | 109 | 4.0 | 8.0 | 0.04 | 0.47 | 0.09 | 89 | 1006.8 |
| 20260510150531 | 61 | 102 | 4.0 | 8.0 | 0.08 | 0.47 | 0.09 | 90 | 1006.8 |
| 20260510150045 | 61 | 113 | 1.0 | 3.0 | 0.08 | 0.47 | 0.09 | 89 | 1006.8 |
| 20260510145554 | 61 | 61 | 0.0 | 3.0 | 0.08 | 0.47 | 0.09 | 89 | 1006.8 |
| 20260510145036 | 61 | 96 | 1.0 | 4.0 | 0.08 | 0.47 | 0.09 | 88 | 1006.9 |
| 20260510144529 | 61 | 61 | 1.0 | 4.0 | 0.08 | 0.47 | 0.09 | 89 | 1006.8 |
| 20260510144045 | 61 | 89 | 1.0 | 4.0 | 0.08 | 0.47 | 0.09 | 90 | 1006.8 |
| 20260510143540 | 61 | 78 | 1.0 | 4.0 | 0.08 | 0.47 | 0.09 | 89 | 1006.8 |
| 20260510143040 | 61 | 55 | 0.0 | 3.0 | 0.08 | 0.47 | 0.09 | 90 | 1006.8 |
| 20260510142543 | 61 | 94 | 1.0 | 3.0 | 0.12 | 0.47 | 0.09 | 90 | 1007.0 |
| 20260510142041 | 61 | 97 | 1.0 | 3.0 | 0.08 | 0.43 | 0.09 | 88 | 1007.0 |
| 20260510141607 | 61 | 94 | 1.0 | 3.0 | 0.08 | 0.43 | 0.09 | 89 | 1007.1 |
| 20260510141103 | 61 | 90 | 1.0 | 6.0 | 0.08 | 0.43 | 0.09 | 89 | 1007.2 |
| 20260510140544 | 61 | 135 | 2.0 | 6.0 | 0.08 | 0.39 | 0.08 | 89 | 1007.3 |
| 20260510140100 | 61 | 90 | 1.0 | 5.0 | 0.08 | 0.39 | 0.08 | 89 | 1007.3 |
| 20260510135540 | 61 | 121 | 2.0 | 4.0 | 0.12 | 0.39 | 0.08 | 89 | 1007.3 |
| 20260510135037 | 61 | 124 | 1.0 | 4.0 | 0.12 | 0.39 | 0.08 | 88 | 1007.3 |
| 20260510134549 | 61 | 124 | 2.0 | 5.0 | 0.12 | 0.39 | 0.08 | 89 | 1007.4 |
| 20260510134043 | 61 | 135 | 3.0 | 5.0 | 0.12 | 0.39 | 0.08 | 88 | 1007.4 |
| 20260510133528 | 61 | 125 | 0.0 | 2.0 | 0.12 | 0.39 | 0.08 | 91 | 1007.4 |
| 20260510133041 | 61 | 149 | 1.0 | 3.0 | 0.12 | 0.39 | 0.08 | 91 | 1007.5 |
| 20260510132553 | 61 | 130 | 1.0 | 3.0 | 0.08 | 0.35 | 0.07 | 92 | 1007.5 |
| 20260510132045 | 61 | 161 | 1.0 | 3.0 | 0.12 | 0.35 | 0.07 | 91 | 1007.5 |
| 20260510131549 | 60 | 150 | 1.0 | 3.0 | 0.12 | 0.35 | 0.07 | 91 | 1007.6 |
| 20260510131044 | 60 | 112 | 1.0 | 6.0 | 0.12 | 0.35 | 0.07 | 90 | 1007.7 |
| 20260510130526 | 60 | 146 | 1.0 | 6.0 | 0.08 | 0.31 | 0.06 | 91 | 1007.7 |
| 20260510130038 | 60 | 167 | 3.0 | 6.0 | 0.08 | 0.31 | 0.06 | 91 | 1007.8 |
| 20260510125540 | 60 | 149 | 2.0 | 7.0 | 0.04 | 0.28 | 0.06 | 91 | 1007.8 |
| 20260510125040 | 61 | 172 | 3.0 | 7.0 | 0.04 | 0.28 | 0.06 | 91 | 1007.8 |
| 20260510124529 | 60 | 161 | 1.0 | 5.0 | 0.04 | 0.28 | 0.06 | 92 | 1007.8 |
| 20260510124035 | 60 | 180 | 1.0 | 6.0 | 0.04 | 0.28 | 0.06 | 91 | 1007.8 |
| 20260510123537 | 60 | 188 | 0.0 | 6.0 | 0.04 | 0.28 | 0.06 | 91 | 1008.0 |
| 20260510123104 | 60 | 184 | 1.0 | 4.0 | 0.04 | 0.28 | 0.06 | 91 | 1007.9 |
| 20260510122542 | 61 | 215 | 1.0 | 4.0 | 0.04 | 0.28 | 0.06 | 91 | 1007.9 |
| 20260510122107 | 61 | 207 | 1.0 | 3.0 | 0.00 | 0.24 | 0.05 | 92 | 1008.0 |
| 20260510121544 | 61 | 205 | 1.0 | 3.0 | 0.00 | 0.24 | 0.05 | 91 | 1008.1 |
| 20260510121027 | 61 | 248 | 1.0 | 5.0 | 0.00 | 0.24 | 0.05 | 91 | 1008.0 |
| 20260510120531 | 61 | 212 | 1.0 | 5.0 | 0.04 | 0.24 | 0.05 | 91 | 1008.0 |
| 20260510120100 | 61 | 202 | 1.0 | 5.0 | 0.04 | 0.24 | 0.05 | 92 | 1008.1 |
| 20260510115540 | 61 | 209 | 1.0 | 5.0 | 0.04 | 0.24 | 0.05 | 92 | 1008.1 |
| 20260510115036 | 61 | 202 | 1.0 | 4.0 | 0.04 | 0.24 | 0.05 | 92 | 1008.1 |
| 20260510114536 | 60 | 187 | 1.0 | 4.0 | 0.08 | 0.24 | 0.05 | 91 | 1008.1 |
| 20260510114032 | 60 | 207 | 1.0 | 3.0 | 0.12 | 0.24 | 0.05 | 92 | 1008.1 |
| 20260510113536 | 60 | 179 | 1.0 | 3.0 | 0.12 | 0.24 | 0.05 | 92 | 1008.2 |
| 20260510113039 | 60 | 201 | 1.0 | 2.0 | 0.16 | 0.24 | 0.05 | 93 | 1008.1 |
| 20260510112549 | 60 | 226 | 0.0 | 5.0 | 0.20 | 0.24 | 0.05 | 92 | 1008.1 |
| 20260510112034 | 60 | 219 | 1.0 | 5.0 | 0.20 | 0.24 | 0.05 | 93 | 1008.2 |
| 20260510111544 | 59 | 217 | 1.0 | 3.0 | 0.20 | 0.24 | 0.05 | 93 | 1008.3 |
| 20260510111106 | 59 | 169 | 2.0 | 3.0 | 0.20 | 0.24 | 0.05 | 93 | 1008.4 |
| 20260510110531 | 59 | 218 | 1.0 | 6.0 | 0.20 | 0.20 | 0.04 | 93 | 1008.4 |
| 20260510110039 | 59 | 165 | 1.0 | 6.0 | 0.20 | 0.20 | 0.04 | 93 | 1008.4 |
| 20260510105527 | 59 | 180 | 0.0 | 7.0 | 0.20 | 0.20 | 0.04 | 93 | 1008.5 |
| 20260510105035 | 58 | 223 | 1.0 | 7.0 | 0.20 | 0.20 | 0.04 | 92 | 1008.5 |
| 20260510104545 | 58 | 224 | 2.0 | 8.0 | 0.16 | 0.16 | 0.03 | 92 | 1008.5 |
| 20260510104042 | 58 | 220 | 2.0 | 8.0 | 0.12 | 0.12 | 0.02 | 91 | 1008.5 |
| 20260510103534 | 59 | 226 | 3.0 | 8.0 | 0.12 | 0.12 | 0.02 | 91 | 1008.6 |
| 20260510103029 | 59 | 192 | 2.0 | 6.0 | 0.08 | 0.08 | 0.02 | 90 | 1008.9 |
| 20260510102541 | 59 | 180 | 2.0 | 12.0 | 0.04 | 0.04 | 0.01 | 89 | 1008.9 |
| 20260510102045 | 60 | 169 | 4.0 | 12.0 | 0.04 | 0.04 | 0.01 | 89 | 1009.0 |
| 20260510101531 | 60 | 154 | 3.0 | 11.0 | 0.04 | 0.04 | 0.01 | 89 | 1009.0 |
| 20260510101041 | 60 | 150 | 3.0 | 11.0 | 0.04 | 0.04 | 0.01 | 87 | 1009.0 |
| 20260510100551 | 60 | 198 | 3.0 | 14.0 | 0.00 | 0.00 | 0.00 | 86 | 1008.9 |
| 20260510100027 | 61 | 185 | 3.0 | 14.0 | 0.00 | 0.00 | 0.00 | 85 | 1008.9 |
| 20260510095528 | 61 | 167 | 4.0 | 12.0 | 0.00 | 0.00 | 0.00 | 84 | 1008.8 |
| 20260510095031 | 62 | 158 | 4.0 | 11.0 | 0.00 | 0.00 | 0.00 | 83 | 1008.8 |
| 20260510094537 | 63 | 153 | 5.0 | 15.0 | 0.00 | 0.00 | 0.00 | 82 | 1008.7 |
| 20260510094044 | 63 | 167 | 5.0 | 17.0 | 0.00 | 0.00 | 0.00 | 82 | 1008.6 |
| 20260510093531 | 64 | 159 | 9.0 | 16.0 | 0.00 | 0.00 | 0.00 | 80 | 1008.5 |
| 20260510093035 | 64 | 184 | 3.0 | 9.0 | 0.00 | 0.00 | 0.00 | 82 | 1008.5 |
| 20260510092541 | 65 | 163 | 1.0 | 8.0 | 0.00 | 0.00 | 0.00 | 81 | 1008.4 |
| 20260510092038 | 65 | 158 | 1.0 | 9.0 | 0.00 | 0.00 | 0.00 | 80 | 1008.4 |
| 20260510091542 | 65 | 181 | 2.0 | 9.0 | 0.00 | 0.00 | 0.00 | 79 | 1008.4 |
| 20260510091042 | 65 | 188 | 1.0 | 4.0 | 0.00 | 0.00 | 0.00 | 79 | 1008.4 |
| 20260510090527 | 65 | 202 | 1.0 | 7.0 | 0.00 | 0.00 | 0.00 | 79 | 1008.4 |
| 20260510090030 | 65 | 165 | 2.0 | 6.0 | 0.00 | 0.00 | 0.00 | 80 | 1008.4 |
| 20260510085558 | 65 | 181 | 3.0 | 7.0 | 0.00 | 0.00 | 0.00 | 80 | 1008.4 |
| 20260510085058 | 65 | 169 | 1.0 | 9.0 | 0.00 | 0.00 | 0.00 | 80 | 1008.3 |
| 20260510084544 | 65 | 182 | 2.0 | 9.0 | 0.00 | 0.00 | 0.00 | 80 | 1008.4 |
| 20260510084037 | 64 | 213 | 1.0 | 9.0 | 0.00 | 0.00 | 0.00 | 80 | 1008.4 |
| 20260510083543 | 64 | 207 | 1.0 | 8.0 | 0.00 | 0.00 | 0.00 | 81 | 1008.4 |
| 20260510083047 | 64 | 205 | 1.0 | 4.0 | 0.00 | 0.00 | 0.00 | 82 | 1008.4 |
| 20260510082557 | 64 | 222 | 1.0 | 5.0 | 0.00 | 0.00 | 0.00 | 81 | 1008.3 |
| 20260510082105 | 64 | 212 | 2.0 | 5.0 | 0.00 | 0.00 | 0.00 | 81 | 1008.3 |
| 20260510081557 | 64 | 175 | 1.0 | 3.0 | 0.00 | 0.00 | 0.00 | 83 | 1008.4 |
| 20260510081039 | 63 | 222 | 1.0 | 4.0 | 0.00 | 0.00 | 0.00 | 84 | 1008.4 |
| 20260510080532 | 63 | 186 | 1.0 | 4.0 | 0.00 | 0.00 | 0.00 | 85 | 1008.3 |
| 20260510080034 | 63 | 188 | 1.0 | 3.0 | 0.00 | 0.00 | 0.00 | 86 | 1008.3 |
| 20260510075540 | 62 | 209 | 1.0 | 3.0 | 0.00 | 0.00 | 0.00 | 85 | 1008.3 |
| 20260510075034 | 62 | 225 | 1.0 | 5.0 | 0.00 | 0.00 | 0.00 | 86 | 1008.3 |
| 20260510074538 | 62 | 190 | 1.0 | 5.0 | 0.00 | 0.00 | 0.00 | 86 | 1008.2 |
| 20260510074035 | 61 | 225 | 1.0 | 5.0 | 0.00 | 0.00 | 0.00 | 87 | 1008.3 |
| 20260510073542 | 61 | 167 | 2.0 | 5.0 | 0.00 | 0.00 | 0.00 | 87 | 1008.3 |
| 20260510073027 | 61 | 196 | 1.0 | 4.0 | 0.00 | 0.00 | 0.00 | 88 | 1008.4 |
| 20260510072527 | 60 | 195 | 1.0 | 6.0 | 0.00 | 0.00 | 0.00 | 89 | 1008.3 |
| 20260510072026 | 60 | 173 | 1.0 | 6.0 | 0.00 | 0.00 | 0.00 | 90 | 1008.2 |
| 20260510071526 | 60 | 182 | 1.0 | 5.0 | 0.00 | 0.00 | 0.00 | 90 | 1008.2 |
| 20260510071028 | 60 | 169 | 1.0 | 5.0 | 0.00 | 0.00 | 0.00 | 90 | 1008.0 |
| 20260510070534 | 59 | 167 | 1.0 | 5.0 | 0.00 | 0.00 | 0.00 | 90 | 1008.0 |
| 20260510070054 | 59 | 166 | 1.0 | 5.0 | 0.00 | 0.00 | 0.00 | 91 | 1008.0 |
| 20260510065535 | 59 | 187 | 2.0 | 7.0 | 0.00 | 0.00 | 0.00 | 91 | 1007.9 |
| 20260510065036 | 59 | 161 | 1.0 | 7.0 | 0.00 | 0.00 | 0.00 | 91 | 1008.0 |
| 20260510064535 | 58 | 169 | 2.0 | 6.0 | 0.00 | 0.00 | 0.00 | 91 | 1008.0 |
| 20260510064035 | 58 | 191 | 1.0 | 3.0 | 0.00 | 0.00 | 0.00 | 91 | 1007.8 |
| 20260510063545 | 58 | 197 | 1.0 | 2.0 | 0.00 | 0.00 | 0.00 | 91 | 1007.8 |
| 20260510063031 | 58 | 221 | 1.0 | 4.0 | 0.00 | 0.00 | 0.00 | 90 | 1007.8 |
| 20260510062549 | 57 | 182 | 0.0 | 6.0 | 0.00 | 0.00 | 0.00 | 90 | 1007.8 |
| 20260510062043 | 57 | 163 | 1.0 | 6.0 | 0.00 | 0.00 | 0.00 | 90 | 1007.7 |
| 20260510061532 | 57 | 162 | 2.0 | 6.0 | 0.00 | 0.00 | 0.00 | 90 | 1007.5 |
| 20260510061030 | 57 | 167 | 1.0 | 3.0 | 0.00 | 0.00 | 0.00 | 90 | 1007.5 |
| 20260510060541 | 57 | 154 | 2.0 | 3.0 | 0.00 | 0.00 | 0.00 | 91 | 1007.5 |
| 20260510060056 | 56 | 143 | 1.0 | 2.0 | 0.00 | 0.00 | 0.00 | 92 | 1007.5 |
| 20260510055541 | 56 | 152 | 0.0 | 1.0 | 0.00 | 0.00 | 0.00 | 92 | 1007.4 |
| 20260510055103 | 55 | 155 | 0.0 | 2.0 | 0.00 | 0.00 | 0.00 | 93 | 1007.5 |
| 20260510054535 | 55 | 156 | 1.0 | 2.0 | 0.00 | 0.00 | 0.00 | 93 | 1007.5 |
| 20260510054030 | 55 | 325 | 0.0 | 0.0 | 0.00 | 0.00 | 0.00 | 93 | 1007.6 |
| 20260510053545 | 54 | 325 | 0.0 | 0.0 | 0.00 | 0.00 | 0.00 | 93 | 1007.4 |
| 20260510053038 | 54 | 325 | 0.0 | 0.0 | 0.00 | 0.00 | 0.00 | 93 | 1007.5 |
| 20260510052528 | 54 | 351 | 0.0 | 0.0 | 0.00 | 0.00 | 0.00 | 93 | 1007.4 |
| 20260510052049 | 54 | 351 | 0.0 | 1.0 | 0.00 | 0.00 | 0.00 | 93 | 1007.4 |
| 20260510051532 | 54 | 351 | 0.0 | 1.0 | 0.00 | 0.00 | 0.00 | 93 | 1007.4 |
| 20260510051028 | 54 | 351 | 0.0 | 1.0 | 0.00 | 0.00 | 0.00 | 92 | 1007.4 |
| 20260510050559 | 54 | 355 | 0.0 | 1.0 | 0.00 | 0.00 | 0.00 | 92 | 1007.4 |
| 20260510050104 | 54 | 351 | 0.0 | 1.0 | 0.00 | 0.00 | 0.00 | 93 | 1007.4 |
| 20260510045532 | 54 | 341 | 0.0 | 1.0 | 0.00 | 0.00 | 0.00 | 93 | 1007.4 |
| 20260510045032 | 54 | 340 | 0.0 | 0.0 | 0.00 | 0.00 | 0.00 | 93 | 1007.4 |
| 20260510044535 | 54 | 340 | 0.0 | 0.0 | 0.00 | 0.00 | 0.00 | 92 | 1007.4 |
| 20260510044029 | 54 | 341 | 0.0 | 0.0 | 0.00 | 0.00 | 0.00 | 92 | 1007.5 |
| 20260510043533 | 54 | 341 | 0.0 | 0.0 | 0.00 | 0.00 | 0.00 | 92 | 1007.5 |
| 20260510043023 | 54 | 341 | 0.0 | 0.0 | 0.00 | 0.00 | 0.00 | 92 | 1007.6 |
| 20260510042534 | 54 | 340 | 0.0 | 0.0 | 0.00 | 0.00 | 0.00 | 91 | 1007.5 |
| 20260510042042 | 54 | 340 | 0.0 | 0.0 | 0.00 | 0.00 | 0.00 | 91 | 1007.5 |
| 20260510041557 | 54 | 340 | 0.0 | 0.0 | 0.00 | 0.00 | 0.00 | 91 | 1007.4 |
| 20260510041042 | 54 | 340 | 0.0 | 1.0 | 0.00 | 0.00 | 0.00 | 91 | 1007.4 |
| 20260510040531 | 54 | 340 | 0.0 | 1.0 | 0.00 | 0.00 | 0.00 | 91 | 1007.3 |
| 20260510040025 | 54 | 343 | 0.0 | 1.0 | 0.00 | 0.00 | 0.00 | 91 | 1007.4 |
| 20260510035539 | 54 | 345 | 0.0 | 1.0 | 0.00 | 0.00 | 0.00 | 91 | 1007.5 |
| 20260510035102 | 54 | 350 | 0.0 | 1.0 | 0.00 | 0.00 | 0.00 | 92 | 1007.5 |
| 20260510034529 | 54 | 333 | 0.0 | 1.0 | 0.00 | 0.00 | 0.00 | 91 | 1007.6 |
| 20260510034029 | 54 | 360 | 0.0 | 0.0 | 0.00 | 0.00 | 0.00 | 91 | 1007.5 |
| 20260510033604 | 54 | 360 | 0.0 | 0.0 | 0.00 | 0.00 | 0.00 | 91 | 1007.5 |
| 20260510033042 | 54 | 360 | 0.0 | 0.0 | 0.00 | 0.00 | 0.00 | 91 | 1007.5 |
| 20260510032529 | 54 | 360 | 0.0 | 0.0 | 0.00 | 0.00 | 0.00 | 91 | 1007.6 |
| 20260510032026 | 54 | 360 | 0.0 | 0.0 | 0.00 | 0.00 | 0.00 | 91 | 1007.6 |
| 20260510031532 | 54 | 360 | 0.0 | 0.0 | 0.00 | 0.00 | 0.00 | 91 | 1007.8 |
| 20260510031033 | 54 | 360 | 0.0 | 0.0 | 0.00 | 0.00 | 0.00 | 91 | 1007.8 |
| 20260510030543 | 54 | 360 | 0.0 | 0.0 | 0.00 | 0.00 | 0.00 | 91 | 1007.7 |
| 20260510030032 | 54 | 360 | 0.0 | 0.0 | 0.00 | 0.00 | 0.00 | 90 | 1007.8 |
| 20260510025535 | 55 | 360 | 0.0 | 0.0 | 0.00 | 0.00 | 0.00 | 90 | 1007.8 |
| 20260510025035 | 55 | 360 | 0.0 | 1.0 | 0.00 | 0.00 | 0.00 | 90 | 1007.7 |
| 20260510024546 | 55 | 360 | 0.0 | 1.0 | 0.00 | 0.00 | 0.00 | 90 | 1007.8 |
| 20260510024029 | 55 | 360 | 0.0 | 0.0 | 0.00 | 0.00 | 0.00 | 90 | 1007.8 |
| 20260510023536 | 55 | 360 | 0.0 | 1.0 | 0.00 | 0.00 | 0.00 | 90 | 1007.8 |
| 20260510023036 | 55 | 360 | 0.0 | 1.0 | 0.00 | 0.00 | 0.00 | 90 | 1007.8 |
| 20260510022539 | 55 | 349 | 0.0 | 1.0 | 0.00 | 0.00 | 0.00 | 90 | 1007.7 |
| 20260510022045 | 55 | 9 | 0.0 | 1.0 | 0.00 | 0.00 | 0.00 | 90 | 1007.8 |
| 20260510021535 | 55 | 30 | 0.0 | 1.0 | 0.00 | 0.00 | 0.00 | 90 | 1007.7 |
| 20260510021034 | 55 | 9 | 0.0 | 1.0 | 0.00 | 0.00 | 0.00 | 90 | 1007.8 |
| 20260510020536 | 55 | 350 | 0.0 | 2.0 | 0.00 | 0.00 | 0.00 | 90 | 1007.7 |
| 20260510020029 | 55 | 355 | 1.0 | 2.0 | 0.00 | 0.00 | 0.00 | 90 | 1007.7 |
| 20260510015530 | 55 | 355 | 1.0 | 2.0 | 0.00 | 0.00 | 0.00 | 90 | 1007.7 |
| 20260510015103 | 55 | 355 | 1.0 | 2.0 | 0.00 | 0.00 | 0.00 | 89 | 1007.8 |
| 20260510014529 | 55 | 5 | 1.0 | 1.0 | 0.00 | 0.00 | 0.00 | 89 | 1008.0 |
| 20260510014028 | 55 | 350 | 0.0 | 2.0 | 0.00 | 0.00 | 0.00 | 89 | 1008.0 |
| 20260510013533 | 55 | 355 | 0.0 | 2.0 | 0.00 | 0.00 | 0.00 | 89 | 1008.0 |
| 20260510013030 | 55 | 348 | 0.0 | 1.0 | 0.00 | 0.00 | 0.00 | 89 | 1008.0 |
| 20260510012545 | 56 | 339 | 0.0 | 3.0 | 0.00 | 0.00 | 0.00 | 89 | 1008.0 |
| 20260510012044 | 56 | 350 | 1.0 | 3.0 | 0.00 | 0.00 | 0.00 | 89 | 1008.0 |
| 20260510011530 | 56 | 348 | 1.0 | 2.0 | 0.00 | 0.00 | 0.00 | 88 | 1008.1 |
| 20260510011031 | 56 | 355 | 1.0 | 2.0 | 0.00 | 0.00 | 0.00 | 88 | 1008.1 |
| 20260510010540 | 56 | 355 | 1.0 | 2.0 | 0.00 | 0.00 | 0.00 | 88 | 1008.2 |
| 20260510010031 | 56 | 351 | 1.0 | 3.0 | 0.00 | 0.00 | 0.00 | 87 | 1008.2 |
| 20260510005541 | 56 | 355 | 1.0 | 3.0 | 0.00 | 0.00 | 0.00 | 88 | 1008.3 |
| 20260510005034 | 56 | 11 | 2.0 | 3.0 | 0.00 | 0.00 | 0.00 | 88 | 1008.3 |
| 20260510004601 | 56 | 5 | 1.0 | 3.0 | 0.00 | 0.00 | 0.00 | 88 | 1008.4 |
| 20260510004041 | 57 | 348 | 0.0 | 0.0 | 0.00 | 0.00 | 0.00 | 88 | 1008.4 |
| 20260510003545 | 57 | 344 | 0.0 | 0.0 | 0.00 | 0.00 | 0.00 | 88 | 1008.5 |
| 20260510003043 | 57 | 347 | 0.0 | 0.0 | 0.00 | 0.00 | 0.00 | 88 | 1008.5 |
| 20260510002551 | 57 | 360 | 0.0 | 0.0 | 0.00 | 0.00 | 0.00 | 87 | 1008.6 |
| 20260510002032 | 57 | 360 | 0.0 | 0.0 | 0.00 | 0.00 | 0.00 | 87 | 1008.6 |
| 20260510001536 | 57 | 360 | 0.0 | 0.0 | 0.00 | 0.00 | 0.00 | 87 | 1008.7 |
| 20260510001039 | 57 | 360 | 0.0 | 0.0 | 0.00 | 0.00 | 0.00 | 86 | 1008.7 |
| 20260510000538 | 57 | 360 | 0.0 | 0.0 | 0.00 | 0.00 | 0.00 | 86 | 1008.8 |
| 20260510000038 | 57 | 360 | 0.0 | 0.0 | 0.00 | 0.00 | 0.00 | 86 | 1008.8 |
| 20260509235532 | 58 | 360 | 0.0 | 0.0 | 0.00 | 0.00 | 0.00 | 86 | 1008.8 |
| 20260509235034 | 58 | 360 | 0.0 | 0.0 | 0.00 | 0.00 | 0.00 | 86 | 1008.8 |
| 20260509234601 | 58 | 360 | 0.0 | 0.0 | 0.00 | 0.00 | 0.00 | 85 | 1008.8 |
| 20260509234026 | 58 | 360 | 0.0 | 0.0 | 0.00 | 0.00 | 0.00 | 86 | 1008.9 |
| 20260509233528 | 58 | 360 | 0.0 | 0.0 | 0.00 | 0.00 | 0.00 | 85 | 1009.0 |
| 20260509233034 | 58 | 360 | 0.0 | 0.0 | 0.00 | 0.00 | 0.00 | 85 | 1008.9 |
| 20260509232528 | 58 | 360 | 0.0 | 0.0 | 0.00 | 0.00 | 0.00 | 85 | 1009.0 |
| 20260509232032 | 58 | 360 | 0.0 | 0.0 | 0.00 | 0.00 | 0.00 | 84 | 1009.0 |
| 20260509231543 | 59 | 360 | 0.0 | 0.0 | 0.00 | 0.00 | 0.00 | 84 | 1009.0 |
| 20260509231030 | 59 | 360 | 0.0 | 0.0 | 0.00 | 0.00 | 0.00 | 83 | 1009.1 |
| 20260509230600 | 59 | 360 | 0.0 | 0.0 | 0.00 | 0.00 | 0.00 | 83 | 1009.1 |
| 20260509230031 | 60 | 360 | 0.0 | 0.0 | 0.00 | 0.00 | 0.00 | 82 | 1009.2 |
| 20260509225540 | 60 | 360 | 0.0 | 0.0 | 0.00 | 0.00 | 0.00 | 82 | 1009.2 |
| 20260509225105 | 60 | 360 | 0.0 | 0.0 | 0.00 | 0.00 | 0.00 | 82 | 1009.2 |
| 20260509224527 | 60 | 360 | 0.0 | 0.0 | 0.00 | 0.00 | 0.00 | 82 | 1009.2 |
| 20260509224026 | 60 | 360 | 0.0 | 0.0 | 0.00 | 0.00 | 0.00 | 81 | 1009.3 |
| 20260509223535 | 60 | 360 | 0.0 | 0.0 | 0.00 | 0.00 | 0.00 | 82 | 1009.3 |
| 20260509223102 | 61 | 13 | 0.0 | 0.0 | 0.00 | 0.00 | 0.00 | 82 | 1009.2 |
| 20260509222531 | 61 | 13 | 0.0 | 0.0 | 0.00 | 0.00 | 0.00 | 81 | 1009.3 |
| 20260509222035 | 61 | 13 | 0.0 | 0.0 | 0.00 | 0.00 | 0.00 | 81 | 1009.4 |
| 20260509221535 | 61 | 13 | 0.0 | 0.0 | 0.00 | 0.00 | 0.00 | 81 | 1009.5 |
| 20260509221032 | 61 | 13 | 0.0 | 0.0 | 0.00 | 0.00 | 0.00 | 81 | 1009.4 |
| 20260509220534 | 61 | 13 | 0.0 | 0.0 | 0.00 | 0.00 | 0.00 | 81 | 1009.5 |
| 20260509220026 | 61 | 13 | 0.0 | 0.0 | 0.00 | 0.00 | 0.00 | 80 | 1009.4 |
| 20260509215532 | 62 | 13 | 0.0 | 0.0 | 0.00 | 0.00 | 0.00 | 80 | 1009.5 |
| 20260509215032 | 62 | 13 | 0.0 | 1.0 | 0.00 | 0.00 | 0.00 | 79 | 1009.4 |
| 20260509214536 | 62 | 11 | 1.0 | 1.0 | 0.00 | 0.00 | 0.00 | 79 | 1009.4 |
| 20260509214036 | 62 | 10 | 0.0 | 1.0 | 0.00 | 0.00 | 0.00 | 79 | 1009.3 |
| 20260509213539 | 62 | 5 | 0.0 | 1.0 | 0.00 | 0.00 | 0.00 | 79 | 1009.3 |
| 20260509213040 | 62 | 350 | 0.0 | 1.0 | 0.00 | 0.00 | 0.00 | 80 | 1009.3 |
| 20260509212541 | 62 | 348 | 0.0 | 1.0 | 0.00 | 0.00 | 0.00 | 80 | 1009.4 |
| 20260509212035 | 62 | 349 | 0.0 | 1.0 | 0.00 | 0.00 | 0.00 | 80 | 1009.4 |
| 20260509211531 | 62 | 10 | 0.0 | 1.0 | 0.00 | 0.00 | 0.00 | 80 | 1009.3 |
| 20260509211035 | 62 | 15 | 0.0 | 0.0 | 0.00 | 0.00 | 0.00 | 80 | 1009.3 |
| 20260509210553 | 62 | 15 | 0.0 | 0.0 | 0.00 | 0.00 | 0.00 | 81 | 1009.4 |
| 20260509210041 | 62 | 15 | 0.0 | 0.0 | 0.00 | 0.00 | 0.00 | 80 | 1009.4 |
| 20260509205526 | 62 | 15 | 0.0 | 0.0 | 0.00 | 0.00 | 0.00 | 80 | 1009.5 |
| 20260509205044 | 62 | 15 | 0.0 | 1.0 | 0.00 | 0.00 | 0.00 | 80 | 1009.6 |
| 20260509204539 | 63 | 15 | 0.0 | 1.0 | 0.00 | 0.00 | 0.00 | 79 | 1009.6 |
| 20260509204039 | 63 | 34 | 0.0 | 0.0 | 0.00 | 0.00 | 0.00 | 79 | 1009.6 |
| 20260509203528 | 63 | 34 | 0.0 | 1.0 | 0.00 | 0.00 | 0.00 | 78 | 1009.7 |
| 20260509203028 | 63 | 34 | 0.0 | 1.0 | 0.00 | 0.00 | 0.00 | 77 | 1009.6 |
| 20260509202529 | 64 | 33 | 0.0 | 1.0 | 0.00 | 0.00 | 0.00 | 77 | 1009.6 |
| 20260509202055 | 64 | 28 | 0.0 | 1.0 | 0.00 | 0.00 | 0.00 | 76 | 1009.6 |
| 20260509201536 | 64 | 28 | 0.0 | 2.0 | 0.00 | 0.00 | 0.00 | 76 | 1009.6 |
| 20260509201046 | 64 | 39 | 1.0 | 2.0 | 0.00 | 0.00 | 0.00 | 76 | 1009.5 |
| 20260509200537 | 65 | 42 | 0.0 | 3.0 | 0.00 | 0.00 | 0.00 | 76 | 1009.5 |
| 20260509200033 | 65 | 36 | 1.0 | 4.0 | 0.00 | 0.00 | 0.00 | 76 | 1009.5 |
| 20260509195603 | 65 | 44 | 1.0 | 4.0 | 0.00 | 0.00 | 0.00 | 76 | 1009.4 |
| 20260509195042 | 65 | 61 | 1.0 | 3.0 | 0.00 | 0.00 | 0.00 | 75 | 1009.4 |
| 20260509194544 | 65 | 47 | 1.0 | 4.0 | 0.00 | 0.00 | 0.00 | 75 | 1009.3 |
| 20260509194044 | 65 | 38 | 1.0 | 3.0 | 0.00 | 0.00 | 0.00 | 75 | 1009.3 |
| 20260509193545 | 66 | 53 | 1.0 | 3.0 | 0.00 | 0.00 | 0.00 | 75 | 1009.3 |
| 20260509193036 | 66 | 60 | 1.0 | 3.0 | 0.00 | 0.00 | 0.00 | 75 | 1009.3 |
| 20260509192534 | 66 | 44 | 1.0 | 3.0 | 0.00 | 0.00 | 0.00 | 75 | 1009.2 |
| 20260509192032 | 67 | 37 | 1.0 | 2.0 | 0.00 | 0.00 | 0.00 | 74 | 1009.3 |
| 20260509191539 | 67 | 40 | 1.0 | 3.0 | 0.00 | 0.00 | 0.00 | 73 | 1009.2 |
| 20260509191044 | 67 | 40 | 1.0 | 3.0 | 0.00 | 0.00 | 0.00 | 73 | 1009.2 |
| 20260509190539 | 68 | 57 | 1.0 | 4.0 | 0.00 | 0.00 | 0.00 | 72 | 1009.2 |
| 20260509190030 | 68 | 63 | 1.0 | 4.0 | 0.00 | 0.00 | 0.00 | 72 | 1009.2 |
| 20260509185540 | 68 | 41 | 2.0 | 5.0 | 0.00 | 0.00 | 0.00 | 72 | 1009.1 |
| 20260509185036 | 69 | 55 | 2.0 | 5.0 | 0.00 | 0.00 | 0.00 | 71 | 1009.0 |
| 20260509184602 | 69 | 26 | 3.0 | 5.0 | 0.00 | 0.00 | 0.00 | 71 | 1009.0 |
| 20260509184036 | 69 | 40 | 2.0 | 4.0 | 0.00 | 0.00 | 0.00 | 71 | 1008.9 |
| 20260509183544 | 70 | 50 | 2.0 | 4.0 | 0.00 | 0.00 | 0.00 | 70 | 1008.8 |
| 20260509183030 | 70 | 57 | 2.0 | 4.0 | 0.00 | 0.00 | 0.00 | 70 | 1008.8 |
| 20260509182541 | 71 | 72 | 1.0 | 5.0 | 0.00 | 0.00 | 0.00 | 69 | 1008.7 |
| 20260509182043 | 71 | 57 | 1.0 | 5.0 | 0.00 | 0.00 | 0.00 | 69 | 1008.7 |
| 20260509181527 | 71 | 42 | 3.0 | 9.0 | 0.00 | 0.00 | 0.00 | 68 | 1008.7 |
| 20260509181032 | 71 | 47 | 4.0 | 9.0 | 0.00 | 0.00 | 0.00 | 67 | 1008.6 |
| 20260509180600 | 72 | 41 | 2.0 | 9.0 | 0.00 | 0.00 | 0.00 | 66 | 1008.6 |
| 20260509180035 | 72 | 46 | 5.0 | 9.0 | 0.00 | 0.00 | 0.00 | 65 | 1008.6 |
| 20260509175544 | 72 | 57 | 3.0 | 9.0 | 0.00 | 0.00 | 0.00 | 65 | 1008.6 |
| 20260509175029 | 73 | 24 | 3.0 | 9.0 | 0.00 | 0.00 | 0.00 | 63 | 1008.7 |
| 20260509174538 | 73 | 58 | 5.0 | 12.0 | 0.00 | 0.00 | 0.00 | 63 | 1008.6 |
| 20260509174038 | 73 | 49 | 5.0 | 12.0 | 0.00 | 0.00 | 0.00 | 61 | 1008.7 |
| 20260509173529 | 73 | 44 | 5.0 | 10.0 | 0.00 | 0.00 | 0.00 | 60 | 1008.6 |
| 20260509173053 | 74 | 56 | 4.0 | 10.0 | 0.00 | 0.00 | 0.00 | 59 | 1008.6 |
| 20260509172543 | 74 | 28 | 4.0 | 11.0 | 0.00 | 0.00 | 0.00 | 58 | 1008.7 |
| 20260509172039 | 75 | 49 | 4.0 | 11.0 | 0.00 | 0.00 | 0.00 | 55 | 1008.7 |
| 20260509171537 | 75 | 71 | 4.0 | 8.0 | 0.00 | 0.00 | 0.00 | 50 | 1008.7 |
| 20260509171044 | 75 | 80 | 4.0 | 9.0 | 0.00 | 0.00 | 0.00 | 48 | 1008.8 |
| 20260509170537 | 76 | 81 | 3.0 | 9.0 | 0.00 | 0.00 | 0.00 | 48 | 1008.8 |
| 20260509170104 | 76 | 21 | 2.0 | 8.0 | 0.00 | 0.00 | 0.00 | 49 | 1008.8 |
| 20260509165530 | 76 | 61 | 4.0 | 9.0 | 0.00 | 0.00 | 0.00 | 48 | 1008.8 |
| 20260509165030 | 76 | 88 | 4.0 | 9.0 | 0.00 | 0.00 | 0.00 | 52 | 1008.9 |
| 20260509164542 | 76 | 71 | 3.0 | 9.0 | 0.00 | 0.00 | 0.00 | 51 | 1008.9 |
| 20260509164045 | 77 | 74 | 4.0 | 9.0 | 0.00 | 0.00 | 0.00 | 49 | 1008.9 |
| 20260509163538 | 78 | 55 | 2.0 | 7.0 | 0.00 | 0.00 | 0.00 | 48 | 1008.9 |
| 20260509163037 | 77 | 82 | 2.0 | 10.0 | 0.00 | 0.00 | 0.00 | 49 | 1009.0 |
| 20260509162543 | 78 | 67 | 5.0 | 10.0 | 0.00 | 0.00 | 0.00 | 47 | 1009.0 |
| 20260509162027 | 78 | 75 | 2.0 | 8.0 | 0.00 | 0.00 | 0.00 | 46 | 1009.0 |
| 20260509161530 | 78 | 76 | 3.0 | 10.0 | 0.00 | 0.00 | 0.00 | 47 | 1009.0 |
| 20260509161033 | 78 | 63 | 4.0 | 10.0 | 0.00 | 0.00 | 0.00 | 48 | 1009.1 |
| 20260509160535 | 78 | 36 | 4.0 | 10.0 | 0.00 | 0.00 | 0.00 | 48 | 1009.1 |
| 20260509160030 | 78 | 77 | 4.0 | 9.0 | 0.00 | 0.00 | 0.00 | 47 | 1009.2 |
| 20260509155535 | 78 | 66 | 2.0 | 10.0 | 0.00 | 0.00 | 0.00 | 48 | 1009.2 |
| 20260509155043 | 79 | 81 | 4.0 | 10.0 | 0.00 | 0.00 | 0.00 | 46 | 1009.3 |